createdAt,value
2023-03-17T00:01:34.082Z,72.80
2023-03-17T00:04:01.525Z,81.20
2023-03-17T00:06:32.038Z,80.90
2023-03-17T00:08:59.175Z,94.30
2023-03-17T00:11:29.814Z,74.00
2023-03-17T00:13:59.374Z,76.40
2023-03-17T00:16:28.436Z,66.00
2023-03-17T00:18:56.782Z,65.40
2023-03-17T00:21:29.252Z,65.20
2023-03-17T00:24:07.485Z,61.70
2023-03-17T00:26:38.005Z,62.50
2023-03-17T00:29:06.011Z,64.00
2023-03-17T00:31:35.258Z,65.80
2023-03-17T00:34:16.814Z,61.80
2023-03-17T00:36:45.967Z,56.10
2023-03-17T00:41:42.512Z,56.60
2023-03-17T00:44:12.860Z,56.60
2023-03-17T00:46:50.863Z,48.40
2023-03-17T00:49:22.157Z,51.80
2023-03-17T00:51:49.873Z,51.70
2023-03-17T00:54:18.235Z,53.70
2023-03-17T00:56:46.517Z,55.40
2023-03-17T00:59:25.425Z,57.00
2023-03-17T01:01:52.626Z,53.70
2023-03-17T01:04:24.080Z,59.20
2023-03-17T01:06:53.298Z,58.70
2023-03-17T01:09:21.508Z,64.50
2023-03-17T01:11:51.924Z,57.90
2023-03-17T01:14:19.586Z,54.50
2023-03-17T01:16:47.881Z,62.70
2023-03-17T01:19:17.075Z,58.70
2023-03-17T01:21:44.605Z,59.80
2023-03-17T01:24:21.728Z,55.20
2023-03-17T01:26:51.089Z,56.90
2023-03-17T01:29:27.164Z,52.90
2023-03-17T01:31:56.910Z,60.70
2023-03-17T01:34:24.055Z,56.80
2023-03-17T01:36:51.170Z,59.50
2023-03-17T01:39:20.948Z,60.50
2023-03-17T01:41:47.874Z,56.30
2023-03-17T01:44:20.775Z,60.60
2023-03-17T01:46:49.589Z,64.20
2023-03-17T01:49:33.167Z,55.40
2023-03-17T01:52:09.590Z,62.50
2023-03-17T01:54:43.791Z,57.60
2023-03-17T01:57:18.043Z,58.50
2023-03-17T01:59:56.589Z,59.10
2023-03-17T02:02:32.004Z,61.10
2023-03-17T02:05:22.216Z,57.10
2023-03-17T02:08:00.908Z,58.40
2023-03-17T02:13:17.009Z,54.10
2023-03-17T02:15:54.650Z,61.50
2023-03-17T02:18:34.885Z,57.50
2023-03-17T02:21:35.601Z,55.30
2023-03-17T02:24:21.834Z,58.40
2023-03-17T02:26:54.668Z,57.50
2023-03-17T02:29:37.995Z,60.70
2023-03-17T02:32:19.465Z,67.50
2023-03-17T02:35:08.587Z,63.60
2023-03-17T02:37:37.342Z,64.50
2023-03-17T02:40:25.546Z,67.40
2023-03-17T02:42:54.137Z,67.80
2023-03-17T02:45:32.462Z,66.60
2023-03-17T02:48:20.235Z,63.10
2023-03-17T02:51:08.118Z,64.60
2023-03-17T02:53:37.939Z,67.70
2023-03-17T02:56:05.635Z,71.50
2023-03-17T02:58:32.722Z,68.60
2023-03-17T03:00:59.968Z,67.60
2023-03-17T03:03:27.637Z,70.70
2023-03-17T03:05:54.849Z,70.60
2023-03-17T03:08:22.140Z,73.40
2023-03-17T03:10:49.247Z,66.70
2023-03-17T03:13:27.164Z,69.80
2023-03-17T03:16:14.647Z,72.40
2023-03-17T03:18:41.883Z,71.70
2023-03-17T03:21:09.707Z,72.20
2023-03-17T03:23:39.626Z,69.30
2023-03-17T03:26:07.849Z,66.70
2023-03-17T03:28:37.763Z,63.10
2023-03-17T03:31:08.597Z,71.40
2023-03-17T03:33:38.856Z,66.60
2023-03-17T03:36:17.505Z,67.80
2023-03-17T03:38:58.756Z,65.50
2023-03-17T03:41:33.163Z,78.10
2023-03-17T03:44:14.086Z,69.20
2023-03-17T03:46:52.322Z,72.90
2023-03-17T03:52:14.499Z,78.20
2023-03-17T03:54:43.578Z,74.90
2023-03-17T03:57:10.791Z,75.50
2023-03-17T03:59:41.297Z,76.80
2023-03-17T04:02:09.555Z,76.20
2023-03-17T04:04:57.956Z,75.40
2023-03-17T04:07:33.907Z,73.70
2023-03-17T04:10:01.100Z,72.20
2023-03-17T04:12:48.136Z,76.00
2023-03-17T04:15:20.707Z,73.80
2023-03-17T04:17:55.070Z,69.80
2023-03-17T04:20:42.558Z,68.30
2023-03-17T04:23:31.630Z,69.90
2023-03-17T04:26:10.364Z,65.80
2023-03-17T04:28:57.669Z,68.10
2023-03-17T04:31:39.800Z,64.90
2023-03-17T04:34:19.546Z,66.80
2023-03-17T04:37:07.470Z,71.50
2023-03-17T04:39:38.165Z,63.40
2023-03-17T04:42:14.810Z,67.40
2023-03-17T04:45:02.071Z,64.50
2023-03-17T04:47:50.059Z,69.70
2023-03-17T04:50:37.400Z,66.60
2023-03-17T04:53:14.738Z,68.70
2023-03-17T04:55:54.606Z,69.00
2023-03-17T04:58:42.051Z,68.60
2023-03-17T05:01:29.438Z,65.20
2023-03-17T05:04:30.717Z,58.30
2023-03-17T05:07:18.858Z,57.40
2023-03-17T05:10:08.001Z,60.20
2023-03-17T05:12:45.345Z,58.50
2023-03-17T05:15:33.711Z,58.60
2023-03-17T05:18:15.000Z,59.30
2023-03-17T05:21:02.888Z,55.70
2023-03-17T05:23:43.073Z,55.60
2023-03-17T05:26:30.611Z,55.20
2023-03-17T05:29:18.024Z,50.80
2023-03-17T05:31:59.480Z,48.70
2023-03-17T05:37:27.406Z,50.70
2023-03-17T05:39:57.884Z,51.20
2023-03-17T05:42:45.593Z,42.30
2023-03-17T05:45:14.415Z,45.40
2023-03-17T05:47:44.893Z,43.70
2023-03-17T05:50:14.103Z,41.10
2023-03-17T05:52:44.225Z,36.10
2023-03-17T05:55:12.606Z,42.80
2023-03-17T05:57:39.753Z,40.10
2023-03-17T06:00:08.649Z,36.60
2023-03-17T06:02:36.442Z,33.70
2023-03-17T06:05:03.891Z,39.00
2023-03-17T06:07:44.582Z,35.20
2023-03-17T06:10:18.013Z,35.90
2023-03-17T06:12:45.076Z,36.50
2023-03-17T06:15:13.062Z,31.40
2023-03-17T06:17:40.313Z,32.10
2023-03-17T06:20:09.216Z,29.90
2023-03-17T06:22:37.421Z,31.80
2023-03-17T06:25:05.602Z,27.10
2023-03-17T06:27:32.990Z,26.40
2023-03-17T06:30:00.377Z,29.00
2023-03-17T06:32:28.388Z,29.20
2023-03-17T06:34:55.611Z,29.00
2023-03-17T06:37:22.719Z,29.00
2023-03-17T06:39:50.106Z,26.00
2023-03-17T06:42:17.912Z,25.10
2023-03-17T06:44:45.379Z,23.80
2023-03-17T06:47:12.792Z,22.20
2023-03-17T06:49:39.847Z,24.10
2023-03-17T06:52:08.870Z,25.90
2023-03-17T06:54:36.717Z,25.40
2023-03-17T06:57:03.911Z,25.50
2023-03-17T06:59:31.476Z,27.40
2023-03-17T07:01:59.160Z,24.00
2023-03-17T07:04:26.564Z,25.10
2023-03-17T07:06:53.698Z,23.70
2023-03-17T07:09:22.307Z,28.20
2023-03-17T07:11:49.739Z,24.30
2023-03-17T07:14:17.193Z,27.00
2023-03-17T07:16:45.236Z,26.20
2023-03-17T07:19:12.511Z,26.10
2023-03-17T07:21:39.812Z,22.90
2023-03-17T07:24:07.390Z,22.80
2023-03-17T07:26:34.654Z,22.70
2023-03-17T07:29:02.545Z,22.00
2023-03-17T07:31:29.846Z,23.60
2023-03-17T07:33:58.251Z,22.60
2023-03-17T07:36:25.679Z,26.30
2023-03-17T07:38:52.770Z,27.10
2023-03-17T07:41:20.756Z,25.10
2023-03-17T07:43:47.784Z,26.10
2023-03-17T07:46:15.252Z,28.10
2023-03-17T07:48:44.175Z,26.00
2023-03-17T07:51:15.018Z,22.20
2023-03-17T07:53:42.782Z,23.60
2023-03-17T07:56:11.808Z,26.30
2023-03-17T07:58:38.870Z,23.40
2023-03-17T08:03:49.706Z,25.30
2023-03-17T08:06:17.040Z,24.30
2023-03-17T08:08:44.195Z,23.20
2023-03-17T08:11:12.516Z,20.70
2023-03-17T08:13:39.875Z,20.90
2023-03-17T08:16:08.318Z,20.90
2023-03-17T08:18:35.434Z,20.90
2023-03-17T08:21:03.000Z,22.40
2023-03-17T08:23:30.140Z,19.40
2023-03-17T08:26:02.113Z,22.20
2023-03-17T08:28:31.579Z,16.60
2023-03-17T08:31:12.215Z,17.70
2023-03-17T08:33:40.026Z,20.50
2023-03-17T08:36:12.950Z,19.20
2023-03-17T08:38:41.627Z,15.70
2023-03-17T08:41:12.385Z,18.30
2023-03-17T08:43:40.512Z,18.70
2023-03-17T08:46:10.294Z,19.50
2023-03-17T08:48:38.210Z,18.60
2023-03-17T08:51:06.064Z,15.50
2023-03-17T08:53:35.226Z,17.70
2023-03-17T08:56:03.937Z,14.10
2023-03-17T08:58:31.718Z,10.60
2023-03-17T09:01:01.761Z,14.50
2023-03-17T09:03:50.198Z,16.00
2023-03-17T09:06:18.231Z,13.20
2023-03-17T09:08:47.760Z,10.30
2023-03-17T09:11:17.866Z,13.60
2023-03-17T09:13:46.589Z,15.90
2023-03-17T09:16:14.635Z,12.20
2023-03-17T09:18:42.257Z,14.90
2023-03-17T09:21:11.957Z,10.30
2023-03-17T09:23:39.239Z,8.70
2023-03-17T09:26:07.005Z,10.90
2023-03-17T09:28:34.200Z,13.00
2023-03-17T09:31:02.710Z,8.90
2023-03-17T09:33:31.108Z,10.30
2023-03-17T09:35:58.634Z,10.60
2023-03-17T09:38:26.450Z,10.70
2023-03-17T09:40:58.910Z,8.60
2023-03-17T09:43:37.246Z,8.70
2023-03-17T09:46:22.549Z,8.30
2023-03-17T09:48:55.539Z,8.00
2023-03-17T09:51:23.102Z,7.80
2023-03-17T09:53:55.684Z,6.90
2023-03-17T09:56:24.896Z,8.40
2023-03-17T09:58:55.613Z,10.00
2023-03-17T10:01:23.583Z,8.80
2023-03-17T10:03:51.792Z,10.10
2023-03-17T10:06:37.760Z,9.10
2023-03-17T10:09:14.380Z,8.50
2023-03-17T10:11:44.420Z,7.60
2023-03-17T10:14:27.373Z,9.10
2023-03-17T10:16:59.357Z,7.90
2023-03-17T10:19:32.144Z,6.90
2023-03-17T10:22:04.278Z,7.60
2023-03-17T10:24:34.194Z,7.10
2023-03-17T10:27:04.757Z,8.40
2023-03-17T10:29:32.742Z,8.70
2023-03-17T10:32:00.252Z,8.60
2023-03-17T10:34:33.075Z,12.10
2023-03-17T10:37:05.925Z,6.90
2023-03-17T10:39:33.827Z,8.00
2023-03-17T10:42:09.233Z,10.00
2023-03-17T10:44:49.810Z,9.20
2023-03-17T10:47:46.064Z,9.30
2023-03-17T10:50:25.386Z,10.40
2023-03-17T10:52:58.091Z,11.70
2023-03-17T10:55:29.458Z,10.40
2023-03-17T10:58:05.080Z,10.60
2023-03-17T11:00:38.753Z,13.10
2023-03-17T11:03:16.831Z,10.40
2023-03-17T11:05:58.074Z,10.30
2023-03-17T11:08:25.846Z,11.80
2023-03-17T11:10:58.603Z,10.10
2023-03-17T11:13:31.863Z,9.90
2023-03-17T11:16:22.191Z,10.10
2023-03-17T11:18:55.958Z,10.60
2023-03-17T11:21:31.359Z,9.60
2023-03-17T11:24:09.616Z,8.70
2023-03-17T11:26:57.614Z,9.90
2023-03-17T11:29:54.805Z,10.80
2023-03-17T11:32:37.059Z,14.10
2023-03-17T11:35:36.315Z,9.60
2023-03-17T11:38:24.564Z,9.30
2023-03-17T11:41:33.068Z,10.70
2023-03-17T11:44:37.432Z,11.00
2023-03-17T11:47:10.295Z,11.40
2023-03-17T11:50:09.712Z,11.80
2023-03-17T11:53:09.924Z,10.00
2023-03-17T11:55:47.394Z,12.30
2023-03-17T11:58:20.984Z,15.90
2023-03-17T12:01:12.588Z,14.10
2023-03-17T12:03:46.910Z,10.50
2023-03-17T12:06:20.748Z,11.20
2023-03-17T12:08:56.298Z,13.80
2023-03-17T12:11:38.209Z,11.00
2023-03-17T12:14:08.215Z,13.00
2023-03-17T12:16:52.737Z,10.60
2023-03-17T12:19:46.458Z,12.80
2023-03-17T12:22:39.324Z,12.00
2023-03-17T12:25:16.608Z,18.40
2023-03-17T12:27:56.427Z,15.60
2023-03-17T12:30:33.056Z,12.10
2023-03-17T12:33:08.030Z,15.00
2023-03-17T12:35:38.732Z,14.40
2023-03-17T12:38:12.989Z,15.80
2023-03-17T12:40:55.557Z,16.60
2023-03-17T12:43:46.915Z,16.70
2023-03-17T12:46:52.425Z,14.60
2023-03-17T12:49:42.300Z,12.60
2023-03-17T12:52:50.709Z,19.00
2023-03-17T12:55:32.552Z,13.50
2023-03-17T12:58:05.718Z,16.80
2023-03-17T13:00:49.300Z,13.80
2023-03-17T13:03:24.599Z,19.60
2023-03-17T13:06:02.198Z,24.80
2023-03-17T13:08:58.245Z,14.60
2023-03-17T13:11:47.445Z,12.90
2023-03-17T13:14:28.657Z,19.30
2023-03-17T13:17:36.318Z,16.80
2023-03-17T13:20:18.432Z,14.80
2023-03-17T13:23:05.165Z,13.50
2023-03-17T13:25:53.841Z,14.00
2023-03-17T13:28:42.020Z,17.30
2023-03-17T13:31:30.829Z,14.80
2023-03-17T13:34:16.348Z,13.10
2023-03-17T13:36:55.599Z,14.60
2023-03-17T13:40:11.175Z,12.00
2023-03-17T13:43:07.713Z,11.30
2023-03-17T13:45:48.898Z,12.60
2023-03-17T13:48:36.549Z,11.30
2023-03-17T13:51:18.791Z,11.00
2023-03-17T13:53:59.634Z,15.80
2023-03-17T13:56:30.603Z,10.80
2023-03-17T13:59:13.359Z,16.50
2023-03-17T14:01:47.170Z,15.00
2023-03-17T14:04:22.906Z,17.10
2023-03-17T14:07:20.993Z,14.70
2023-03-17T14:09:59.229Z,14.50
2023-03-17T14:12:34.082Z,13.00
2023-03-17T14:15:08.369Z,12.50
2023-03-17T14:17:49.799Z,15.20
2023-03-17T14:20:30.092Z,13.50
2023-03-17T14:23:01.490Z,12.50
2023-03-17T14:25:34.722Z,15.40
2023-03-17T14:28:18.150Z,16.40
2023-03-17T14:30:54.485Z,16.00
2023-03-17T14:33:25.741Z,16.20
2023-03-17T14:35:57.504Z,17.10
2023-03-17T14:38:27.163Z,16.50
2023-03-17T14:41:04.467Z,13.70
2023-03-17T14:43:32.068Z,18.50
2023-03-17T14:46:04.978Z,12.70
2023-03-17T14:48:35.499Z,12.40
2023-03-17T14:51:07.020Z,16.10
2023-03-17T14:53:35.659Z,14.40
2023-03-17T14:56:10.921Z,18.30
2023-03-17T15:01:22.010Z,22.60
2023-03-17T15:04:06.144Z,18.80
2023-03-17T15:06:52.977Z,17.50
2023-03-17T15:09:27.259Z,16.50
2023-03-17T15:11:59.270Z,15.30
2023-03-17T15:14:33.000Z,17.90
2023-03-17T15:17:03.186Z,17.40
2023-03-17T15:19:42.802Z,17.20
2023-03-17T15:22:26.406Z,18.20
2023-03-17T15:25:02.463Z,15.60
2023-03-17T15:27:44.815Z,22.90
2023-03-17T15:30:16.086Z,17.40
2023-03-17T15:32:44.026Z,18.60
2023-03-17T15:35:25.182Z,15.10
2023-03-17T15:37:52.649Z,14.90
2023-03-17T15:40:20.784Z,17.80
2023-03-17T15:42:48.281Z,15.70
2023-03-17T15:45:19.637Z,17.60
2023-03-17T15:48:10.662Z,18.10
2023-03-17T15:50:50.707Z,15.50
2023-03-17T15:53:23.638Z,13.90
2023-03-17T15:55:51.330Z,20.10
2023-03-17T15:58:27.427Z,15.50
2023-03-17T16:00:59.781Z,16.90
2023-03-17T16:03:34.039Z,14.80
2023-03-17T16:06:12.395Z,14.00
2023-03-17T16:08:42.848Z,15.00
2023-03-17T16:11:17.896Z,15.40
2023-03-17T16:13:45.323Z,15.00
2023-03-17T16:16:21.534Z,17.60
2023-03-17T16:18:53.623Z,18.20
2023-03-17T16:21:21.653Z,17.10
2023-03-17T16:24:17.317Z,14.90
2023-03-17T16:27:03.992Z,14.80
2023-03-17T16:29:31.512Z,17.00
2023-03-17T16:32:16.064Z,12.70
2023-03-17T16:34:53.609Z,17.80
2023-03-17T16:37:21.223Z,17.70
2023-03-17T16:40:22.801Z,14.00
2023-03-17T16:42:53.421Z,15.80
2023-03-17T16:45:33.254Z,14.20
2023-03-17T16:48:01.935Z,11.60
2023-03-17T16:50:39.247Z,17.80
2023-03-17T16:53:27.632Z,14.70
2023-03-17T16:56:04.612Z,15.60
2023-03-17T16:58:52.585Z,14.90
2023-03-17T17:01:40.073Z,15.50
2023-03-17T17:04:12.048Z,14.80
2023-03-17T17:06:42.595Z,14.30
2023-03-17T17:09:17.187Z,15.90
2023-03-17T17:11:58.708Z,16.10
2023-03-17T17:14:38.843Z,16.60
2023-03-17T17:17:06.831Z,14.50
2023-03-17T17:19:54.374Z,18.20
2023-03-17T17:22:41.820Z,13.50
2023-03-17T17:25:13.134Z,15.20
2023-03-17T17:27:45.954Z,13.60
2023-03-17T17:30:34.390Z,15.60
2023-03-17T17:33:05.722Z,17.60
2023-03-17T17:35:34.505Z,23.60
2023-03-17T17:38:02.637Z,15.90
2023-03-17T17:40:31.104Z,20.20
2023-03-17T17:43:02.141Z,21.70
2023-03-17T17:45:39.582Z,19.50
2023-03-17T17:48:22.606Z,20.00
2023-03-17T17:50:49.955Z,19.10
2023-03-17T17:53:37.745Z,14.70
2023-03-17T17:56:05.273Z,19.70
2023-03-17T17:58:37.970Z,20.60
2023-03-17T18:01:18.880Z,16.70
2023-03-17T18:04:06.715Z,20.40
2023-03-17T18:06:44.044Z,16.20
2023-03-17T18:09:12.681Z,19.80
2023-03-17T18:11:51.461Z,20.40
2023-03-17T18:14:30.103Z,18.10
2023-03-17T18:17:00.599Z,20.50
2023-03-17T18:20:23.938Z,18.60
2023-03-17T18:23:05.064Z,16.70
2023-03-17T18:25:32.632Z,17.50
2023-03-17T18:28:01.615Z,17.00
2023-03-17T18:30:48.235Z,20.80
2023-03-17T18:33:27.839Z,18.50
2023-03-17T18:36:00.605Z,17.80
2023-03-17T18:38:48.444Z,23.20
2023-03-17T18:41:36.594Z,20.80
2023-03-17T18:44:03.920Z,17.30
2023-03-17T18:46:36.557Z,24.10
2023-03-17T18:49:27.305Z,19.60
2023-03-17T18:52:15.476Z,21.30
2023-03-17T18:55:08.629Z,19.10
2023-03-17T18:57:48.945Z,20.80
2023-03-17T19:00:20.310Z,21.70
2023-03-17T19:02:56.070Z,21.90
2023-03-17T19:05:24.799Z,18.30
2023-03-17T19:07:55.371Z,20.30
2023-03-17T19:10:23.078Z,17.10
2023-03-17T19:13:04.661Z,21.70
2023-03-17T19:15:42.750Z,21.80
2023-03-17T19:18:10.315Z,27.80
2023-03-17T19:20:38.071Z,22.80
2023-03-17T19:23:08.053Z,24.60
2023-03-17T19:25:38.067Z,22.80
2023-03-17T19:28:14.625Z,20.60
2023-03-17T19:30:45.725Z,21.20
2023-03-17T19:33:13.258Z,26.30
2023-03-17T19:36:03.098Z,20.30
2023-03-17T19:38:36.468Z,23.80
2023-03-17T19:41:07.911Z,27.30
2023-03-17T19:43:55.295Z,24.00
2023-03-17T19:49:29.234Z,21.70
2023-03-17T19:54:50.664Z,24.60
2023-03-17T19:57:20.960Z,20.90
2023-03-17T20:00:00.908Z,25.40
2023-03-17T20:02:31.616Z,24.10
2023-03-17T20:05:11.462Z,25.50
2023-03-17T20:07:49.269Z,24.60
2023-03-17T20:10:16.624Z,27.00
2023-03-17T20:12:45.812Z,28.80
2023-03-17T20:15:14.293Z,26.50
2023-03-17T20:17:44.686Z,28.50
2023-03-17T20:20:16.307Z,25.80
2023-03-17T20:22:53.562Z,28.50
2023-03-17T20:25:21.907Z,26.70
2023-03-17T20:27:57.787Z,33.10
2023-03-17T20:30:39.634Z,23.20
2023-03-17T20:33:08.473Z,26.40
2023-03-17T20:35:39.259Z,25.00
2023-03-17T20:38:27.123Z,25.10
2023-03-17T20:41:08.370Z,27.00
2023-03-17T20:43:37.641Z,27.10
2023-03-17T20:46:18.672Z,21.00
2023-03-17T20:48:48.296Z,24.90
2023-03-17T20:51:36.807Z,25.60
2023-03-17T20:54:05.398Z,26.50
2023-03-17T20:56:44.310Z,22.80
2023-03-17T20:59:13.773Z,22.30
2023-03-17T21:01:42.741Z,25.60
2023-03-17T21:04:21.378Z,26.50
2023-03-17T21:06:56.238Z,20.20
2023-03-17T21:09:23.846Z,20.70
2023-03-17T21:12:15.067Z,25.60
2023-03-17T21:15:02.395Z,23.60
2023-03-17T21:17:32.751Z,20.60
2023-03-17T21:19:59.955Z,22.20
2023-03-17T21:22:27.790Z,20.90
2023-03-17T21:24:55.633Z,24.70
2023-03-17T21:27:23.277Z,22.10
2023-03-17T21:29:51.411Z,22.70
2023-03-17T21:32:31.935Z,22.70
2023-03-17T21:35:11.387Z,26.10
2023-03-17T21:37:58.996Z,21.00
2023-03-17T21:40:37.713Z,25.10
2023-03-17T21:43:05.784Z,21.60
2023-03-17T21:45:33.288Z,21.00
2023-03-17T21:48:21.076Z,20.80
2023-03-17T21:50:58.536Z,17.70
2023-03-17T21:53:42.571Z,19.20
2023-03-17T21:56:12.702Z,19.90
2023-03-17T21:58:44.827Z,17.80
2023-03-17T22:01:21.980Z,19.70
2023-03-17T22:03:49.524Z,21.40
2023-03-17T22:06:36.980Z,19.30
2023-03-17T22:09:04.512Z,21.80
2023-03-17T22:11:51.897Z,20.60
2023-03-17T22:14:39.478Z,20.90
2023-03-17T22:17:17.612Z,20.10
2023-03-17T22:19:45.374Z,20.40
2023-03-17T22:22:23.069Z,19.20
2023-03-17T22:25:11.428Z,19.40
2023-03-17T22:27:58.738Z,21.10
2023-03-17T22:33:33.193Z,23.00
2023-03-17T22:36:10.919Z,22.90
2023-03-17T22:38:47.497Z,18.30
2023-03-17T22:41:29.117Z,17.20
2023-03-17T22:43:57.518Z,20.60
2023-03-17T22:46:37.845Z,21.00
2023-03-17T22:49:08.952Z,21.40
2023-03-17T22:51:56.424Z,18.50
2023-03-17T22:54:37.553Z,17.90
2023-03-17T22:57:23.825Z,18.40
2023-03-17T22:59:55.304Z,18.70
2023-03-17T23:02:34.922Z,18.50
2023-03-17T23:05:05.687Z,15.30
2023-03-17T23:07:50.698Z,19.20
2023-03-17T23:10:24.809Z,17.30
2023-03-17T23:12:52.752Z,16.30
2023-03-17T23:15:21.229Z,17.70
2023-03-17T23:17:52.103Z,20.00
2023-03-17T23:20:24.765Z,15.30
2023-03-17T23:22:54.861Z,22.10
2023-03-17T23:25:25.852Z,15.90
2023-03-17T23:27:53.269Z,17.80
2023-03-17T23:30:23.422Z,16.50
2023-03-17T23:33:01.426Z,17.10
2023-03-17T23:35:41.847Z,18.90
2023-03-17T23:38:09.782Z,17.70
2023-03-17T23:40:58.429Z,18.10
2023-03-17T23:43:46.904Z,17.00
2023-03-17T23:46:34.784Z,15.60
2023-03-17T23:49:12.326Z,16.90
2023-03-17T23:51:50.965Z,17.70
2023-03-17T23:54:28.001Z,14.60
2023-03-17T23:57:05.258Z,18.20
2023-03-17T23:59:32.663Z,18.90
